EDFH Airport Information

Runway Information
Runway 03 Length 12467 ft width 148 ft
Elevation 1645 ft Threshold 3461 ft Heading 32
Runway 21 Length 12467 ft Width 148 ft
Elevation 1588 ft Threshold 984 ft Heading 212
Airport Frequencies
Type AFIS Name LANGEN INF Frequency 123.525 MHZ
Type APP Name LANGEN RAD Frequency 125.6 MHZ
Type ATIS Name ATIS Frequency 136.35 MHZ
Type GND Name GND Frequency 121.975 MHZ
Type TWR Name TWR Frequency 119.65 MHZ
Airport Navaids
Type NDB Name Hahn Frequency 376 KHZ
Type DME Name Hahn Frequency 116950 KHZ
Airport Weather Information & NOTAM
ADDS - METARS form results

(2237 UTC 18 August 2022)
Data provider http://aviationweather.gov/metar/data/
 
METAR text: EDFH 182220Z 30003KT CAVOK 17/14 Q1014
Conditions at: EDFH (HAHN , DE) observed 2220 UTC 18 August 2022
Temperature: 17.0°C (63°F)
Dewpoint: 14.0°C (57°F) [RH = 82%]
Pressure (altimeter): 29.94 inches Hg (1014.0 mb)
Winds: from the WNW (300 degrees) at 3 MPH (3 knots; 1.5 m/s)
Visibility: 6 or more miles (10+ km)
Ceiling: ceiling and visibility are OK
Clouds: unknown
Weather: no significant weather observed at this time

METAR text: EDFH 182150Z 31003KT CAVOK 17/13 Q1014
Conditions at: EDFH (HAHN , DE) observed 2150 UTC 18 August 2022
Temperature: 17.0°C (63°F)
Dewpoint: 13.0°C (55°F) [RH = 77%]
Pressure (altimeter): 29.94 inches Hg (1014.0 mb)
Winds: from the NW (310 degrees) at 3 MPH (3 knots; 1.5 m/s)
Visibility: 6 or more miles (10+ km)
Ceiling: ceiling and visibility are OK
Clouds: unknown
Weather: no significant weather observed at this time

Forecast for: EDFH (HAHN , DE)
Text: TAF EDFH 181700Z 1818/1918 35004KT 9999 FEW040
Forecast period: 1800 UTC 18 August 2022 to 1100 UTC 19 August 2022
Forecast type: FROM: standard forecast or significant change
Winds: from the N (350 degrees) at 5 MPH (4 knots; 2.1 m/s)
Visibility: 6 or more miles (10+ km)
Ceiling: at least 12,000 feet AGL
Clouds: few clouds at 4000 feet AGL
Weather: no significant weather forecast for this period
Text: BECMG 1911/1914 29008KT
Forecast period: 1100 to 1800 UTC 19 August 2022
Forecast type: BECOMING: Conditions expected to become as follows by 1400 UTC 19 August 2022
Winds: from the WNW (290 degrees) at 9 MPH (8 knots; 4.1 m/s)
Visibility: 6 or more miles (10+ km)
Ceiling: at least 12,000 feet AGL
Clouds: few clouds at 4000 feet AGL
Weather: no significant weather forecast for this period